PORT of SANTA UXIA RIBEIRA

Country: Spain Country: Spain (ES)
Latitude / Longitude: 42.559005° / -8.989251° Show on Map Show on Map
Local Time:  UTC +2
UN/LOCODE: ESRBI
Vessels in Port: 2

Recent Arrivals & Departures


Vessel Name
Arrival (UTC)
Arrival (LT)
Departure (UTC)
Departure (LT)
MOROPA 2014-10-23 18:07:00 2014-10-23 20:07:00
Vessel Type: Tugs, Pilots etc  SALVAMAR SARGADELOS 2014-10-17 10:24:00 2014-10-17 12:24:00 2014-10-23 17:44:00 2014-10-23 19:44:00
Vessel Type: Fishing  MANUEL MASCATO 2014-10-23 14:17:00 2014-10-23 16:17:00 2014-10-23 16:40:00 2014-10-23 18:40:00
Vessel Type: Fishing  PLAYA DE COVAS 2014-10-23 07:59:00 2014-10-23 09:59:00 2014-10-23 16:13:00 2014-10-23 18:13:00
Vessel Type: Fishing  TUCAN DOUS 2014-10-23 15:18:00 2014-10-23 17:18:00 2014-10-23 15:51:00 2014-10-23 17:51:00
MOROPA 2014-10-22 21:22:00 2014-10-22 23:22:00 2014-10-23 06:04:00 2014-10-23 08:04:00
Vessel Type: Fishing  SIEIRA UN 2014-10-22 13:17:00 2014-10-22 15:17:00 2014-10-23 05:41:00 2014-10-23 07:41:00
Vessel Type: Fishing  PLAYA DE COVAS 2014-10-22 22:15:00 2014-10-23 00:15:00 2014-10-23 03:43:00 2014-10-23 05:43:00
Vessel Type: Fishing  TERCERO DOS MEROS 2014-10-22 22:41:00 2014-10-23 00:41:00 2014-10-23 03:40:00 2014-10-23 05:40:00
NOVO TAIS 2014-10-22 17:42:00 2014-10-22 19:42:00 2014-10-23 01:58:00 2014-10-23 03:58:00

Expected Arrivals


Vessel Name
Scheduled Arrival (UTC)
Scheduled Arrival (LT)
Estimated Arrival (UTC)
Estimated Arrival (LT)
No Records Found

Wind Forecast


    
Time (UTC)
Speed
Direction
Temperature
2014-10-23 18:00:00 3 knots 79° 21°C
2014-10-23 21:00:00 6 knots 134° 20°C
2014-10-24 00:00:00 5 knots 141° 20°C
2014-10-24 03:00:00 4 knots 137° 20°C
2014-10-24 06:00:00 7 knots 151° 20°C
2014-10-24 09:00:00 9 knots 163° 20°C
2014-10-24 12:00:00 6 knots 306° 20°C
2014-10-24 15:00:00 2 knots 123° 20°C
2014-10-24 18:00:00 4 knots 109° 21°C
2014-10-24 21:00:00 5 knots 115° 20°C
2014-10-25 00:00:00 4 knots 77° 20°C
2014-10-25 03:00:00 6 knots 72° 20°C
2014-10-25 06:00:00 7 knots 89° 19°C
2014-10-25 09:00:00 8 knots 51° 19°C
2014-10-25 12:00:00 5 knots 49° 23°C
2014-10-25 15:00:00 7 knots 346° 23°C
2014-10-25 18:00:00 7 knots 346° 22°C